sensor_id;sensor_type;location;lat;lon;timestamp;temperature;humidity
31733;DHT22;18312;51.486;7.144;2022-10-23T00:00:45;12.40;99.90
31733;DHT22;18312;51.486;7.144;2022-10-23T00:03:11;12.30;99.90
31733;DHT22;18312;51.486;7.144;2022-10-23T00:05:41;12.30;99.90
31733;DHT22;18312;51.486;7.144;2022-10-23T00:08:08;12.30;99.90
31733;DHT22;18312;51.486;7.144;2022-10-23T00:10:35;12.30;99.90
31733;DHT22;18312;51.486;7.144;2022-10-23T00:13:05;12.30;99.90
31733;DHT22;18312;51.486;7.144;2022-10-23T00:15:34;12.30;99.90
31733;DHT22;18312;51.486;7.144;2022-10-23T00:18:02;12.30;99.90
31733;DHT22;18312;51.486;7.144;2022-10-23T00:20:28;12.20;99.90
31733;DHT22;18312;51.486;7.144;2022-10-23T00:22:55;12.20;99.90
31733;DHT22;18312;51.486;7.144;2022-10-23T00:25:25;12.20;99.90
31733;DHT22;18312;51.486;7.144;2022-10-23T00:27:51;12.30;99.90
31733;DHT22;18312;51.486;7.144;2022-10-23T00:30:18;12.30;99.90
31733;DHT22;18312;51.486;7.144;2022-10-23T00:32:45;12.30;99.90
31733;DHT22;18312;51.486;7.144;2022-10-23T00:35:19;12.30;99.90
31733;DHT22;18312;51.486;7.144;2022-10-23T00:37:46;12.30;99.90
31733;DHT22;18312;51.486;7.144;2022-10-23T00:40:13;12.20;99.90
31733;DHT22;18312;51.486;7.144;2022-10-23T00:42:47;12.30;99.90
31733;DHT22;18312;51.486;7.144;2022-10-23T00:45:20;12.30;99.90
31733;DHT22;18312;51.486;7.144;2022-10-23T00:47:48;12.30;99.90
31733;DHT22;18312;51.486;7.144;2022-10-23T00:50:25;12.30;99.90
31733;DHT22;18312;51.486;7.144;2022-10-23T00:52:55;12.30;99.90
31733;DHT22;18312;51.486;7.144;2022-10-23T00:55:23;12.30;99.90
31733;DHT22;18312;51.486;7.144;2022-10-23T00:57:51;12.30;99.90
31733;DHT22;18312;51.486;7.144;2022-10-23T01:00:20;12.30;99.90
31733;DHT22;18312;51.486;7.144;2022-10-23T01:02:48;12.30;99.90
31733;DHT22;18312;51.486;7.144;2022-10-23T01:05:18;12.20;99.90
31733;DHT22;18312;51.486;7.144;2022-10-23T01:07:55;12.30;99.90
31733;DHT22;18312;51.486;7.144;2022-10-23T01:10:32;12.30;99.90
31733;DHT22;18312;51.486;7.144;2022-10-23T01:13:04;12.20;99.90
31733;DHT22;18312;51.486;7.144;2022-10-23T01:15:36;12.20;99.90
31733;DHT22;18312;51.486;7.144;2022-10-23T01:18:20;12.20;99.90
31733;DHT22;18312;51.486;7.144;2022-10-23T01:20:53;12.20;99.90
31733;DHT22;18312;51.486;7.144;2022-10-23T01:23:54;12.30;99.90
31733;DHT22;18312;51.486;7.144;2022-10-23T01:26:59;12.30;99.90
31733;DHT22;18312;51.486;7.144;2022-10-23T01:29:45;12.30;99.90
31733;DHT22;18312;51.486;7.144;2022-10-23T01:32:18;12.40;99.90
31733;DHT22;18312;51.486;7.144;2022-10-23T01:34:50;12.50;99.90
31733;DHT22;18312;51.486;7.144;2022-10-23T01:37:21;12.40;99.90
31733;DHT22;18312;51.486;7.144;2022-10-23T01:39:51;12.50;99.90
31733;DHT22;18312;51.486;7.144;2022-10-23T01:42:23;12.50;99.90
31733;DHT22;18312;51.486;7.144;2022-10-23T01:44:59;12.60;99.90
31733;DHT22;18312;51.486;7.144;2022-10-23T01:47:30;12.60;99.90
31733;DHT22;18312;51.486;7.144;2022-10-23T01:50:00;12.60;99.90
31733;DHT22;18312;51.486;7.144;2022-10-23T01:52:27;12.60;99.90
31733;DHT22;18312;51.486;7.144;2022-10-23T01:54:58;12.70;99.90
31733;DHT22;18312;51.486;7.144;2022-10-23T01:57:30;12.70;99.90
31733;DHT22;18312;51.486;7.144;2022-10-23T02:00:02;12.70;99.90
31733;DHT22;18312;51.486;7.144;2022-10-23T02:02:31;12.60;99.90
31733;DHT22;18312;51.486;7.144;2022-10-23T02:05:04;12.70;99.90
31733;DHT22;18312;51.486;7.144;2022-10-23T02:07:32;12.70;99.90
31733;DHT22;18312;51.486;7.144;2022-10-23T02:09:59;12.90;99.90
31733;DHT22;18312;51.486;7.144;2022-10-23T02:12:32;12.90;99.90
31733;DHT22;18312;51.486;7.144;2022-10-23T02:15:10;12.90;99.90
31733;DHT22;18312;51.486;7.144;2022-10-23T02:17:46;13.00;99.90
31733;DHT22;18312;51.486;7.144;2022-10-23T02:20:19;13.10;99.90
31733;DHT22;18312;51.486;7.144;2022-10-23T02:22:54;13.20;99.90
31733;DHT22;18312;51.486;7.144;2022-10-23T02:25:31;13.10;99.90
31733;DHT22;18312;51.486;7.144;2022-10-23T02:28:02;13.10;99.90
31733;DHT22;18312;51.486;7.144;2022-10-23T02:30:32;13.00;99.90
31733;DHT22;18312;51.486;7.144;2022-10-23T02:33:04;13.10;99.90
31733;DHT22;18312;51.486;7.144;2022-10-23T02:35:34;13.10;99.90
31733;DHT22;18312;51.486;7.144;2022-10-23T02:38:01;13.10;99.90
31733;DHT22;18312;51.486;7.144;2022-10-23T02:40:34;13.10;99.90
31733;DHT22;18312;51.486;7.144;2022-10-23T02:43:05;13.10;99.90
31733;DHT22;18312;51.486;7.144;2022-10-23T02:45:42;13.10;99.90
31733;DHT22;18312;51.486;7.144;2022-10-23T02:48:16;13.10;99.90
31733;DHT22;18312;51.486;7.144;2022-10-23T02:50:50;13.20;99.90
31733;DHT22;18312;51.486;7.144;2022-10-23T02:53:24;13.20;99.90
31733;DHT22;18312;51.486;7.144;2022-10-23T02:55:59;13.10;99.90
31733;DHT22;18312;51.486;7.144;2022-10-23T02:58:34;13.20;99.90
31733;DHT22;18312;51.486;7.144;2022-10-23T03:01:17;13.10;99.90
31733;DHT22;18312;51.486;7.144;2022-10-23T03:03:50;13.10;99.90
31733;DHT22;18312;51.486;7.144;2022-10-23T03:06:18;13.10;99.90
31733;DHT22;18312;51.486;7.144;2022-10-23T03:08:51;13.10;99.90
31733;DHT22;18312;51.486;7.144;2022-10-23T03:11:18;13.10;99.90
31733;DHT22;18312;51.486;7.144;2022-10-23T03:13:48;13.10;99.90
31733;DHT22;18312;51.486;7.144;2022-10-23T03:16:18;13.10;99.90
31733;DHT22;18312;51.486;7.144;2022-10-23T03:18:45;13.10;99.90
31733;DHT22;18312;51.486;7.144;2022-10-23T03:21:12;13.10;99.90
31733;DHT22;18312;51.486;7.144;2022-10-23T03:23:38;13.10;99.90
31733;DHT22;18312;51.486;7.144;2022-10-23T03:26:05;13.10;99.90
31733;DHT22;18312;51.486;7.144;2022-10-23T03:28:32;13.00;99.90
31733;DHT22;18312;51.486;7.144;2022-10-23T03:31:00;13.00;99.90
31733;DHT22;18312;51.486;7.144;2022-10-23T03:33:31;13.00;99.90
31733;DHT22;18312;51.486;7.144;2022-10-23T03:36:00;13.00;99.90
31733;DHT22;18312;51.486;7.144;2022-10-23T03:38:33;12.90;99.90
31733;DHT22;18312;51.486;7.144;2022-10-23T03:40:59;12.90;99.90
31733;DHT22;18312;51.486;7.144;2022-10-23T03:43:26;13.00;99.90
31733;DHT22;18312;51.486;7.144;2022-10-23T03:45:56;12.90;99.90
31733;DHT22;18312;51.486;7.144;2022-10-23T03:48:23;13.00;99.90
31733;DHT22;18312;51.486;7.144;2022-10-23T03:50:51;12.90;99.90
31733;DHT22;18312;51.486;7.144;2022-10-23T03:53:18;12.90;99.90
31733;DHT22;18312;51.486;7.144;2022-10-23T03:55:44;12.90;99.90
31733;DHT22;18312;51.486;7.144;2022-10-23T03:58:11;13.00;99.90
31733;DHT22;18312;51.486;7.144;2022-10-23T04:00:38;12.90;99.90
31733;DHT22;18312;51.486;7.144;2022-10-23T04:03:04;12.90;99.90
31733;DHT22;18312;51.486;7.144;2022-10-23T04:05:34;12.90;99.90
31733;DHT22;18312;51.486;7.144;2022-10-23T04:08:03;12.80;99.90
31733;DHT22;18312;51.486;7.144;2022-10-23T04:10:30;12.70;99.90
31733;DHT22;18312;51.486;7.144;2022-10-23T04:12:57;12.70;99.90
31733;DHT22;18312;51.486;7.144;2022-10-23T04:15:23;12.70;99.90
31733;DHT22;18312;51.486;7.144;2022-10-23T04:17:50;12.60;99.90
31733;DHT22;18312;51.486;7.144;2022-10-23T04:20:17;12.60;99.90
31733;DHT22;18312;51.486;7.144;2022-10-23T04:22:44;12.50;99.90
31733;DHT22;18312;51.486;7.144;2022-10-23T04:25:12;12.40;99.90
31733;DHT22;18312;51.486;7.144;2022-10-23T04:27:39;12.30;99.90
31733;DHT22;18312;51.486;7.144;2022-10-23T04:30:06;12.30;99.90
31733;DHT22;18312;51.486;7.144;2022-10-23T04:32:36;12.30;99.90
31733;DHT22;18312;51.486;7.144;2022-10-23T04:35:12;12.30;99.90
31733;DHT22;18312;51.486;7.144;2022-10-23T04:37:38;12.30;99.90
31733;DHT22;18312;51.486;7.144;2022-10-23T04:40:08;12.30;99.90
31733;DHT22;18312;51.486;7.144;2022-10-23T04:42:39;12.40;99.90
31733;DHT22;18312;51.486;7.144;2022-10-23T04:45:06;12.40;99.90
31733;DHT22;18312;51.486;7.144;2022-10-23T04:47:33;12.50;99.90
31733;DHT22;18312;51.486;7.144;2022-10-23T04:50:03;12.50;99.90
31733;DHT22;18312;51.486;7.144;2022-10-23T04:52:30;12.50;99.90
31733;DHT22;18312;51.486;7.144;2022-10-23T04:54:57;12.50;99.90
31733;DHT22;18312;51.486;7.144;2022-10-23T04:57:23;12.50;99.90
31733;DHT22;18312;51.486;7.144;2022-10-23T04:59:55;12.50;99.90
31733;DHT22;18312;51.486;7.144;2022-10-23T05:02:24;12.40;99.90
31733;DHT22;18312;51.486;7.144;2022-10-23T05:04:54;12.40;99.90
31733;DHT22;18312;51.486;7.144;2022-10-23T05:07:21;12.30;99.90
31733;DHT22;18312;51.486;7.144;2022-10-23T05:09:47;12.30;99.90
31733;DHT22;18312;51.486;7.144;2022-10-23T05:12:16;12.30;99.90
31733;DHT22;18312;51.486;7.144;2022-10-23T05:14:44;12.20;99.90
31733;DHT22;18312;51.486;7.144;2022-10-23T05:17:15;12.10;99.90
31733;DHT22;18312;51.486;7.144;2022-10-23T05:19:51;12.10;99.90
31733;DHT22;18312;51.486;7.144;2022-10-23T05:22:19;12.00;99.90
31733;DHT22;18312;51.486;7.144;2022-10-23T05:24:46;12.00;99.90
31733;DHT22;18312;51.486;7.144;2022-10-23T05:27:12;12.00;99.90
31733;DHT22;18312;51.486;7.144;2022-10-23T05:29:39;12.10;99.90
31733;DHT22;18312;51.486;7.144;2022-10-23T05:32:08;12.10;99.90
31733;DHT22;18312;51.486;7.144;2022-10-23T05:38:06;12.10;99.90
31733;DHT22;18312;51.486;7.144;2022-10-23T05:40:36;12.00;99.90
31733;DHT22;18312;51.486;7.144;2022-10-23T05:43:05;12.00;99.90
31733;DHT22;18312;51.486;7.144;2022-10-23T05:45:35;12.10;99.90
31733;DHT22;18312;51.486;7.144;2022-10-23T05:48:01;12.10;99.90
31733;DHT22;18312;51.486;7.144;2022-10-23T05:50:29;12.20;99.90
31733;DHT22;18312;51.486;7.144;2022-10-23T05:52:56;12.20;99.90
31733;DHT22;18312;51.486;7.144;2022-10-23T05:55:24;12.20;99.90
31733;DHT22;18312;51.486;7.144;2022-10-23T05:57:51;12.50;99.90
31733;DHT22;18312;51.486;7.144;2022-10-23T06:00:25;12.60;99.90
31733;DHT22;18312;51.486;7.144;2022-10-23T06:02:52;12.70;99.90
31733;DHT22;18312;51.486;7.144;2022-10-23T06:05:22;12.70;99.90
31733;DHT22;18312;51.486;7.144;2022-10-23T06:07:50;12.70;99.90
31733;DHT22;18312;51.486;7.144;2022-10-23T06:10:21;12.80;99.90
31733;DHT22;18312;51.486;7.144;2022-10-23T06:12:48;13.00;99.90
31733;DHT22;18312;51.486;7.144;2022-10-23T06:15:15;13.20;99.90
31733;DHT22;18312;51.486;7.144;2022-10-23T06:17:49;13.40;99.90
31733;DHT22;18312;51.486;7.144;2022-10-23T06:20:15;13.50;99.90
31733;DHT22;18312;51.486;7.144;2022-10-23T06:22:42;13.50;99.90
31733;DHT22;18312;51.486;7.144;2022-10-23T06:25:10;13.50;99.90
31733;DHT22;18312;51.486;7.144;2022-10-23T06:27:45;13.60;99.90
31733;DHT22;18312;51.486;7.144;2022-10-23T06:30:16;13.60;99.90
31733;DHT22;18312;51.486;7.144;2022-10-23T06:32:42;13.80;99.90
31733;DHT22;18312;51.486;7.144;2022-10-23T06:35:09;13.90;99.90
31733;DHT22;18312;51.486;7.144;2022-10-23T06:37:43;13.90;99.90
31733;DHT22;18312;51.486;7.144;2022-10-23T06:40:11;13.90;99.90
31733;DHT22;18312;51.486;7.144;2022-10-23T06:42:41;13.90;99.90
31733;DHT22;18312;51.486;7.144;2022-10-23T06:45:11;14.00;99.90
31733;DHT22;18312;51.486;7.144;2022-10-23T06:47:37;14.10;99.90
31733;DHT22;18312;51.486;7.144;2022-10-23T06:50:05;14.20;99.90
31733;DHT22;18312;51.486;7.144;2022-10-23T06:52:31;14.30;99.90
31733;DHT22;18312;51.486;7.144;2022-10-23T06:54:58;14.30;99.90
31733;DHT22;18312;51.486;7.144;2022-10-23T06:57:28;14.30;99.90
31733;DHT22;18312;51.486;7.144;2022-10-23T06:59:55;14.40;99.90
31733;DHT22;18312;51.486;7.144;2022-10-23T07:02:22;14.40;99.90
31733;DHT22;18312;51.486;7.144;2022-10-23T07:04:51;14.30;99.90
31733;DHT22;18312;51.486;7.144;2022-10-23T07:07:18;14.40;99.90
31733;DHT22;18312;51.486;7.144;2022-10-23T07:09:52;14.40;99.90
31733;DHT22;18312;51.486;7.144;2022-10-23T07:12:19;14.40;99.90
31733;DHT22;18312;51.486;7.144;2022-10-23T07:14:47;14.50;99.90
31733;DHT22;18312;51.486;7.144;2022-10-23T07:17:13;14.60;99.90
31733;DHT22;18312;51.486;7.144;2022-10-23T07:19:40;14.60;99.90
31733;DHT22;18312;51.486;7.144;2022-10-23T07:22:07;14.60;99.90
31733;DHT22;18312;51.486;7.144;2022-10-23T07:24:33;14.70;99.90
31733;DHT22;18312;51.486;7.144;2022-10-23T07:27:06;14.60;99.90
31733;DHT22;18312;51.486;7.144;2022-10-23T07:29:35;14.70;99.90
31733;DHT22;18312;51.486;7.144;2022-10-23T07:32:04;14.80;99.90
31733;DHT22;18312;51.486;7.144;2022-10-23T07:34:31;14.80;99.90
31733;DHT22;18312;51.486;7.144;2022-10-23T07:36:58;15.00;99.90
31733;DHT22;18312;51.486;7.144;2022-10-23T07:39:25;15.10;99.90
31733;DHT22;18312;51.486;7.144;2022-10-23T07:41:51;15.10;99.90
31733;DHT22;18312;51.486;7.144;2022-10-23T07:44:18;15.10;99.90
31733;DHT22;18312;51.486;7.144;2022-10-23T07:46:45;15.10;99.90
31733;DHT22;18312;51.486;7.144;2022-10-23T07:49:13;15.10;99.90
31733;DHT22;18312;51.486;7.144;2022-10-23T07:51:43;15.30;99.90
31733;DHT22;18312;51.486;7.144;2022-10-23T07:54:10;15.40;99.90
31733;DHT22;18312;51.486;7.144;2022-10-23T07:56:37;15.40;99.90
31733;DHT22;18312;51.486;7.144;2022-10-23T07:59:04;15.50;99.90
31733;DHT22;18312;51.486;7.144;2022-10-23T08:01:33;15.50;99.90
31733;DHT22;18312;51.486;7.144;2022-10-23T08:04:00;15.60;99.90
31733;DHT22;18312;51.486;7.144;2022-10-23T08:06:34;15.70;99.90
31733;DHT22;18312;51.486;7.144;2022-10-23T08:09:01;15.90;99.90
31733;DHT22;18312;51.486;7.144;2022-10-23T08:11:28;15.90;99.90
31733;DHT22;18312;51.486;7.144;2022-10-23T08:14:01;16.00;99.90
31733;DHT22;18312;51.486;7.144;2022-10-23T08:16:29;16.20;99.90
31733;DHT22;18312;51.486;7.144;2022-10-23T08:18:59;16.20;99.90
31733;DHT22;18312;51.486;7.144;2022-10-23T08:21:25;16.30;99.90
31733;DHT22;18312;51.486;7.144;2022-10-23T08:24:03;16.40;99.90
31733;DHT22;18312;51.486;7.144;2022-10-23T08:26:30;16.50;99.90
31733;DHT22;18312;51.486;7.144;2022-10-23T08:28:57;16.60;99.90
31733;DHT22;18312;51.486;7.144;2022-10-23T08:31:27;16.70;99.90
31733;DHT22;18312;51.486;7.144;2022-10-23T08:34:01;16.80;99.90
31733;DHT22;18312;51.486;7.144;2022-10-23T08:36:31;17.00;99.90
31733;DHT22;18312;51.486;7.144;2022-10-23T08:39:05;17.10;99.90
31733;DHT22;18312;51.486;7.144;2022-10-23T08:41:36;17.20;99.90
31733;DHT22;18312;51.486;7.144;2022-10-23T08:44:12;17.30;99.90
31733;DHT22;18312;51.486;7.144;2022-10-23T08:46:43;17.50;99.90
31733;DHT22;18312;51.486;7.144;2022-10-23T08:49:19;17.70;99.90
31733;DHT22;18312;51.486;7.144;2022-10-23T08:51:51;17.80;99.90
31733;DHT22;18312;51.486;7.144;2022-10-23T08:54:23;18.00;99.90
31733;DHT22;18312;51.486;7.144;2022-10-23T08:56:56;18.00;99.90
31733;DHT22;18312;51.486;7.144;2022-10-23T08:59:26;18.30;99.90
31733;DHT22;18312;51.486;7.144;2022-10-23T09:01:59;18.30;99.90
31733;DHT22;18312;51.486;7.144;2022-10-23T09:04:26;18.40;99.90
31733;DHT22;18312;51.486;7.144;2022-10-23T09:06:57;18.50;99.90
31733;DHT22;18312;51.486;7.144;2022-10-23T09:09:51;18.60;99.90
31733;DHT22;18312;51.486;7.144;2022-10-23T09:12:21;18.60;99.90
31733;DHT22;18312;51.486;7.144;2022-10-23T09:15:13;18.70;99.90
31733;DHT22;18312;51.486;7.144;2022-10-23T09:17:41;18.60;99.90
31733;DHT22;18312;51.486;7.144;2022-10-23T09:20:18;18.60;99.90
31733;DHT22;18312;51.486;7.144;2022-10-23T09:22:47;18.60;99.90
31733;DHT22;18312;51.486;7.144;2022-10-23T09:25:21;18.60;99.90
31733;DHT22;18312;51.486;7.144;2022-10-23T09:27:51;18.50;99.90
31733;DHT22;18312;51.486;7.144;2022-10-23T09:30:27;18.60;99.90
31733;DHT22;18312;51.486;7.144;2022-10-23T09:32:54;18.50;99.90
31733;DHT22;18312;51.486;7.144;2022-10-23T09:35:21;18.50;99.90
31733;DHT22;18312;51.486;7.144;2022-10-23T09:37:49;18.50;99.90
31733;DHT22;18312;51.486;7.144;2022-10-23T09:40:24;18.60;99.90
31733;DHT22;18312;51.486;7.144;2022-10-23T09:42:55;18.60;99.90
31733;DHT22;18312;51.486;7.144;2022-10-23T09:45:26;18.60;99.90
31733;DHT22;18312;51.486;7.144;2022-10-23T09:50:50;18.70;99.90
31733;DHT22;18312;51.486;7.144;2022-10-23T09:53:29;18.80;99.90
31733;DHT22;18312;51.486;7.144;2022-10-23T09:56:04;18.80;99.90
31733;DHT22;18312;51.486;7.144;2022-10-23T09:58:35;18.90;99.90
31733;DHT22;18312;51.486;7.144;2022-10-23T10:01:03;18.90;99.90
31733;DHT22;18312;51.486;7.144;2022-10-23T10:03:30;18.90;99.90
31733;DHT22;18312;51.486;7.144;2022-10-23T10:06:00;19.00;99.90
31733;DHT22;18312;51.486;7.144;2022-10-23T10:08:38;19.10;99.90
31733;DHT22;18312;51.486;7.144;2022-10-23T10:11:12;19.20;99.90
31733;DHT22;18312;51.486;7.144;2022-10-23T10:16:42;19.20;99.90
31733;DHT22;18312;51.486;7.144;2022-10-23T10:19:18;19.30;99.90
31733;DHT22;18312;51.486;7.144;2022-10-23T10:21:51;19.50;99.90
31733;DHT22;18312;51.486;7.144;2022-10-23T10:24:24;19.60;99.90
31733;DHT22;18312;51.486;7.144;2022-10-23T10:27:00;19.60;99.90
31733;DHT22;18312;51.486;7.144;2022-10-23T10:29:44;19.80;99.90
31733;DHT22;18312;51.486;7.144;2022-10-23T10:32:22;19.80;99.90
31733;DHT22;18312;51.486;7.144;2022-10-23T10:34:54;19.70;99.90
31733;DHT22;18312;51.486;7.144;2022-10-23T10:37:28;19.70;99.90
31733;DHT22;18312;51.486;7.144;2022-10-23T10:40:07;19.70;99.90
31733;DHT22;18312;51.486;7.144;2022-10-23T10:42:50;19.60;99.90
31733;DHT22;18312;51.486;7.144;2022-10-23T10:45:28;19.50;99.90
31733;DHT22;18312;51.486;7.144;2022-10-23T10:48:06;19.50;99.90
31733;DHT22;18312;51.486;7.144;2022-10-23T10:50:44;19.60;99.90
31733;DHT22;18312;51.486;7.144;2022-10-23T10:53:19;19.50;99.90
31733;DHT22;18312;51.486;7.144;2022-10-23T10:55:49;19.50;99.90
31733;DHT22;18312;51.486;7.144;2022-10-23T10:58:22;19.60;99.90
31733;DHT22;18312;51.486;7.144;2022-10-23T11:00:55;19.70;99.90
31733;DHT22;18312;51.486;7.144;2022-10-23T11:03:29;19.60;99.90
31733;DHT22;18312;51.486;7.144;2022-10-23T11:06:01;19.70;99.90
31733;DHT22;18312;51.486;7.144;2022-10-23T11:08:34;19.70;99.90
31733;DHT22;18312;51.486;7.144;2022-10-23T11:11:05;19.70;99.90
31733;DHT22;18312;51.486;7.144;2022-10-23T11:13:36;19.70;99.90
31733;DHT22;18312;51.486;7.144;2022-10-23T11:16:12;19.60;99.90
31733;DHT22;18312;51.486;7.144;2022-10-23T11:18:41;19.50;99.90
31733;DHT22;18312;51.486;7.144;2022-10-23T11:21:18;19.60;99.90
31733;DHT22;18312;51.486;7.144;2022-10-23T11:26:49;19.80;99.90
31733;DHT22;18312;51.486;7.144;2022-10-23T11:29:45;20.00;99.90
31733;DHT22;18312;51.486;7.144;2022-10-23T11:32:28;20.20;99.90
31733;DHT22;18312;51.486;7.144;2022-10-23T11:35:17;20.20;99.90
31733;DHT22;18312;51.486;7.144;2022-10-23T11:37:57;20.40;99.90
31733;DHT22;18312;51.486;7.144;2022-10-23T11:40:24;20.50;99.90
31733;DHT22;18312;51.486;7.144;2022-10-23T11:42:51;20.40;99.90
31733;DHT22;18312;51.486;7.144;2022-10-23T11:45:28;20.40;99.90
31733;DHT22;18312;51.486;7.144;2022-10-23T11:47:57;20.30;99.90
31733;DHT22;18312;51.486;7.144;2022-10-23T11:50:30;20.40;99.90
31733;DHT22;18312;51.486;7.144;2022-10-23T11:53:03;20.50;99.90
31733;DHT22;18312;51.486;7.144;2022-10-23T11:55:36;20.60;99.90
31733;DHT22;18312;51.486;7.144;2022-10-23T11:58:21;20.80;99.90
31733;DHT22;18312;51.486;7.144;2022-10-23T12:00:56;20.90;99.90
31733;DHT22;18312;51.486;7.144;2022-10-23T12:03:27;21.10;99.90
31733;DHT22;18312;51.486;7.144;2022-10-23T12:06:00;21.10;99.90
31733;DHT22;18312;51.486;7.144;2022-10-23T12:08:29;20.80;99.90
31733;DHT22;18312;51.486;7.144;2022-10-23T12:10:57;20.80;99.90
31733;DHT22;18312;51.486;7.144;2022-10-23T12:16:15;20.70;99.90
31733;DHT22;18312;51.486;7.144;2022-10-23T12:18:47;20.70;99.90
31733;DHT22;18312;51.486;7.144;2022-10-23T12:21:18;20.70;99.90
31733;DHT22;18312;51.486;7.144;2022-10-23T12:23:59;20.70;99.90
31733;DHT22;18312;51.486;7.144;2022-10-23T12:26:54;20.80;99.90
31733;DHT22;18312;51.486;7.144;2022-10-23T12:29:31;20.70;99.90
31733;DHT22;18312;51.486;7.144;2022-10-23T12:32:16;20.80;99.90
31733;DHT22;18312;51.486;7.144;2022-10-23T12:34:56;20.90;99.90
31733;DHT22;18312;51.486;7.144;2022-10-23T12:37:42;21.00;99.90
31733;DHT22;18312;51.486;7.144;2022-10-23T12:40:13;21.20;99.90
31733;DHT22;18312;51.486;7.144;2022-10-23T12:42:49;21.20;99.90
31733;DHT22;18312;51.486;7.144;2022-10-23T12:45:19;21.10;99.90
31733;DHT22;18312;51.486;7.144;2022-10-23T12:47:50;21.20;99.90
31733;DHT22;18312;51.486;7.144;2022-10-23T12:50:19;21.20;99.90
31733;DHT22;18312;51.486;7.144;2022-10-23T12:52:51;21.40;99.90
31733;DHT22;18312;51.486;7.144;2022-10-23T12:55:21;21.50;99.90
31733;DHT22;18312;51.486;7.144;2022-10-23T12:57:49;21.40;99.90
31733;DHT22;18312;51.486;7.144;2022-10-23T13:00:18;21.40;99.90
31733;DHT22;18312;51.486;7.144;2022-10-23T13:02:46;21.40;99.90
31733;DHT22;18312;51.486;7.144;2022-10-23T13:05:24;21.20;99.90
31733;DHT22;18312;51.486;7.144;2022-10-23T13:07:52;21.20;99.90
31733;DHT22;18312;51.486;7.144;2022-10-23T13:10:21;21.30;99.90
31733;DHT22;18312;51.486;7.144;2022-10-23T13:13:04;21.30;99.90
31733;DHT22;18312;51.486;7.144;2022-10-23T13:15:39;21.30;99.90
31733;DHT22;18312;51.486;7.144;2022-10-23T13:18:07;21.40;99.90
31733;DHT22;18312;51.486;7.144;2022-10-23T13:20:40;21.50;99.90
31733;DHT22;18312;51.486;7.144;2022-10-23T13:23:16;21.60;99.90
31733;DHT22;18312;51.486;7.144;2022-10-23T13:25:54;21.70;99.90
31733;DHT22;18312;51.486;7.144;2022-10-23T13:28:23;21.60;99.90
31733;DHT22;18312;51.486;7.144;2022-10-23T13:31:02;21.50;99.90
31733;DHT22;18312;51.486;7.144;2022-10-23T13:33:35;21.40;99.90
31733;DHT22;18312;51.486;7.144;2022-10-23T13:36:19;21.30;99.90
31733;DHT22;18312;51.486;7.144;2022-10-23T13:38:59;21.20;99.90
31733;DHT22;18312;51.486;7.144;2022-10-23T13:41:27;21.00;99.90
31733;DHT22;18312;51.486;7.144;2022-10-23T13:43:54;20.90;99.90
31733;DHT22;18312;51.486;7.144;2022-10-23T13:46:24;20.80;99.90
31733;DHT22;18312;51.486;7.144;2022-10-23T13:48:51;20.80;99.90
31733;DHT22;18312;51.486;7.144;2022-10-23T13:51:23;20.80;99.90
31733;DHT22;18312;51.486;7.144;2022-10-23T13:53:50;20.80;99.90
31733;DHT22;18312;51.486;7.144;2022-10-23T13:56:21;20.70;99.90
31733;DHT22;18312;51.486;7.144;2022-10-23T13:58:48;20.70;99.90
31733;DHT22;18312;51.486;7.144;2022-10-23T14:01:21;20.70;99.90
31733;DHT22;18312;51.486;7.144;2022-10-23T14:03:48;20.60;99.90
31733;DHT22;18312;51.486;7.144;2022-10-23T14:06:15;20.60;99.90
31733;DHT22;18312;51.486;7.144;2022-10-23T14:08:43;20.60;99.90
31733;DHT22;18312;51.486;7.144;2022-10-23T14:11:13;20.60;99.90
31733;DHT22;18312;51.486;7.144;2022-10-23T14:13:40;20.50;99.90
31733;DHT22;18312;51.486;7.144;2022-10-23T14:16:08;20.50;99.90
31733;DHT22;18312;51.486;7.144;2022-10-23T14:18:36;20.40;99.90
31733;DHT22;18312;51.486;7.144;2022-10-23T14:21:07;20.40;99.90
31733;DHT22;18312;51.486;7.144;2022-10-23T14:23:34;20.40;99.90
31733;DHT22;18312;51.486;7.144;2022-10-23T14:26:09;20.40;99.90
31733;DHT22;18312;51.486;7.144;2022-10-23T14:28:37;20.40;99.90
31733;DHT22;18312;51.486;7.144;2022-10-23T14:31:07;20.40;99.90
31733;DHT22;18312;51.486;7.144;2022-10-23T14:33:37;20.30;99.90
31733;DHT22;18312;51.486;7.144;2022-10-23T14:36:04;20.30;99.90
31733;DHT22;18312;51.486;7.144;2022-10-23T14:38:31;20.30;99.90
31733;DHT22;18312;51.486;7.144;2022-10-23T14:40:57;20.20;99.90
31733;DHT22;18312;51.486;7.144;2022-10-23T14:43:28;20.20;99.90
31733;DHT22;18312;51.486;7.144;2022-10-23T14:45:55;20.20;99.90
31733;DHT22;18312;51.486;7.144;2022-10-23T14:48:22;20.10;99.90
31733;DHT22;18312;51.486;7.144;2022-10-23T14:50:49;20.00;99.90
31733;DHT22;18312;51.486;7.144;2022-10-23T14:53:21;20.00;99.90
31733;DHT22;18312;51.486;7.144;2022-10-23T14:55:47;19.90;99.90
31733;DHT22;18312;51.486;7.144;2022-10-23T14:58:18;19.90;99.90
31733;DHT22;18312;51.486;7.144;2022-10-23T15:00:57;19.80;99.90
31733;DHT22;18312;51.486;7.144;2022-10-23T15:03:31;19.80;99.90
31733;DHT22;18312;51.486;7.144;2022-10-23T15:05:58;19.70;99.90
31733;DHT22;18312;51.486;7.144;2022-10-23T15:08:25;19.70;99.90
31733;DHT22;18312;51.486;7.144;2022-10-23T15:10:51;19.70;99.90
31733;DHT22;18312;51.486;7.144;2022-10-23T15:13:18;19.60;99.90
31733;DHT22;18312;51.486;7.144;2022-10-23T15:15:48;19.60;99.90
31733;DHT22;18312;51.486;7.144;2022-10-23T15:18:18;19.60;99.90
31733;DHT22;18312;51.486;7.144;2022-10-23T15:20:51;19.60;99.90
31733;DHT22;18312;51.486;7.144;2022-10-23T15:23:18;19.60;99.90
31733;DHT22;18312;51.486;7.144;2022-10-23T15:25:53;19.50;99.90
31733;DHT22;18312;51.486;7.144;2022-10-23T15:28:20;19.50;99.90
31733;DHT22;18312;51.486;7.144;2022-10-23T15:30:47;19.50;99.90
31733;DHT22;18312;51.486;7.144;2022-10-23T15:33:13;19.40;99.90
31733;DHT22;18312;51.486;7.144;2022-10-23T15:35:41;19.20;99.90
31733;DHT22;18312;51.486;7.144;2022-10-23T15:38:08;19.10;99.90
31733;DHT22;18312;51.486;7.144;2022-10-23T15:40:35;18.90;99.90
31733;DHT22;18312;51.486;7.144;2022-10-23T15:43:04;18.60;99.90
31733;DHT22;18312;51.486;7.144;2022-10-23T15:45:31;18.50;99.90
31733;DHT22;18312;51.486;7.144;2022-10-23T15:47:57;18.30;99.90
31733;DHT22;18312;51.486;7.144;2022-10-23T15:50:24;18.30;99.90
31733;DHT22;18312;51.486;7.144;2022-10-23T15:52:55;18.10;99.90
31733;DHT22;18312;51.486;7.144;2022-10-23T15:55:22;18.10;99.90
31733;DHT22;18312;51.486;7.144;2022-10-23T15:57:49;18.10;99.90
31733;DHT22;18312;51.486;7.144;2022-10-23T16:00:19;18.00;99.90
31733;DHT22;18312;51.486;7.144;2022-10-23T16:02:45;18.00;99.90
31733;DHT22;18312;51.486;7.144;2022-10-23T16:05:12;18.00;99.90
31733;DHT22;18312;51.486;7.144;2022-10-23T16:07:41;17.90;99.90